Data for 02/18/2014

Time Sea-Level Adjusted Pressure Absolute Pressure Temperature Relative Humidity Dew Point   
(mb) (inHg) (mb) (inHg) (C) (F) (%) (C) (F)
00:05 1007 29.74 836 24.69 1.5 34.7 79 -1.7 29
00:10 1007 29.74 836 24.69 0.9 33.6 83 -1.7 29
00:15 1007 29.74 837 24.72 0.6 33.1 85 -1.6 29.2
00:20 1008 29.77 837 24.72 0.5 32.8 87 -1.5 29.4
00:25 1008 29.77 837 24.72 0.4 32.6 87 -1.6 29.2
00:30 1008 29.77 837 24.72 0.4 32.6 85 -1.9 28.7
00:35 1008 29.77 837 24.72 0.3 32.5 86 -1.8 28.8
00:40 1008 29.77 837 24.72 0.2 32.3 86 -1.9 28.6
00:45 1008 29.77 837 24.72 0.2 32.4 84 -2.2 28
00:50 1008 29.77 837 24.72 0.3 32.5 84 -2.1 28.2
00:55 1008 29.77 837 24.72 0.2 32.4 84 -2.1 28.2
01:00 1008 29.77 837 24.72 0.2 32.4 83 -2.4 27.7
01:05 1008 29.77 837 24.72 0.3 32.5 73 -3.9 24.9
01:10 1008 29.77 837 24.72 0.7 33.2 67 -4.8 23.4
01:15 1008 29.77 837 24.72 0.9 33.6 63 -5.4 22.2
01:20 1008 29.77 837 24.72 1 33.9 60 -5.8 21.6
01:25 1008 29.77 837 24.72 1.1 34 58 -6.2 20.9
01:30 1008 29.77 837 24.72 1.1 34 58 -6.3 20.7
01:35 1008 29.77 837 24.72 1.1 34 57 -6.5 20.3
01:40 1008 29.77 837 24.72 1.1 33.9 57 -6.6 20.1
01:45 1008 29.77 837 24.72 1 33.9 58 -6.4 20.4
01:50 1008 29.77 837 24.72 1 33.8 57 -6.6 20.2
01:55 1008 29.77 837 24.72 1 33.8 57 -6.5 20.2
02:00 1008 29.77 838 24.75 1 33.8 57 -6.6 20.2
02:05 1008 29.77 838 24.75 1 33.9 55 -7.1 19.3
02:10 1008 29.77 838 24.75 1.2 34.1 53 -7.3 18.9
02:15 1009 29.8 838 24.75 1.3 34.3 52 -7.5 18.4
02:20 1009 29.8 838 24.75 1.4 34.4 51 -7.6 18.2
02:25 1009 29.8 838 24.75 1.4 34.6 51 -7.6 18.3
02:30 1009 29.8 838 24.75 1.3 34.4 50 -7.8 17.9
02:35 1009 29.8 838 24.75 1.3 34.4 50 -8 17.7
02:40 1009 29.8 838 24.75 1.3 34.3 50 -8.1 17.4
02:45 1009 29.8 838 24.75 1.3 34.3 48 -8.7 16.4
02:50 1009 29.8 838 24.75 1.3 34.4 48 -8.6 16.6
02:55 1009 29.8 838 24.75 1.3 34.3 50 -8.1 17.5
03:00 1009 29.8 839 24.78 1.1 33.9 51 -7.9 17.7
03:05 1009 29.8 839 24.78 1 33.8 52 -7.8 18
03:10 1009 29.8 839 24.78 0.9 33.7 54 -7.3 18.9
03:15 1009 29.8 839 24.78 0.8 33.4 56 -7 19.4
03:20 1009 29.8 839 24.78 0.6 33 56 -7.3 18.8
03:25 1009 29.8 839 24.78 0.4 32.7 54 -7.8 17.9
03:30 1010 29.83 839 24.78 0.3 32.6 55 -7.7 18.1
03:35 1010 29.83 839 24.78 0.2 32.4 55 -7.8 17.9
03:40 1010 29.83 839 24.78 0.2 32.3 55 -7.8 17.9
03:45 1010 29.83 839 24.78 0.2 32.3 49 -9.4 15
03:50 1010 29.83 839 24.78 0.7 33.2 44 -10.4 13.3
03:55 1010 29.83 839 24.78 1 33.8 44 -9.9 14.1
04:00 1010 29.83 839 24.78 0.9 33.5 46 -9.6 14.8
04:05 1010 29.83 839 24.78 0.7 33.2 47 -9.5 15
04:10 1010 29.83 839 24.78 0.6 33 47 -9.6 14.8
04:15 1010 29.83 839 24.78 0.4 32.8 48 -9.3 15.2
04:20 1010 29.83 839 24.78 0.2 32.4 49 -9.3 15.2
04:25 1010 29.83 839 24.78 0.1 32.2 50 -9.2 15.5
04:30 1010 29.83 840 24.81 0.1 32.1 50 -9.2 15.4
04:35 1010 29.83 840 24.81 0.1 32.1 50 -9.1 15.7
04:40 1010 29.83 840 24.81 0 32 51 -8.9 15.9
04:45 1011 29.85 840 24.81 -0 32 52 -8.8 16.2
04:50 1011 29.85 840 24.81 -0.1 31.8 52 -8.9 16
04:55 1011 29.85 840 24.81 -0 32 52 -8.9 16.1
05:00 1011 29.85 840 24.81 0 32 51 -9 15.8
05:05 1011 29.85 840 24.81 0.1 32.1 51 -8.9 16
05:10 1011 29.85 840 24.81 0.1 32.1 51 -8.9 16
05:15 1011 29.85 841 24.83 0 32.1 51 -8.9 16
05:20 1012 29.88 841 24.83 -0 32 52 -8.7 16.3
05:25 1012 29.88 841 24.83 -0 32 53 -8.6 16.5
05:30 1012 29.88 841 24.83 -0 31.9 51 -9 15.9
05:35 1012 29.88 841 24.83 0.1 32.1 51 -8.9 16
05:40 1012 29.88 841 24.83 0 32 51 -9 15.8
05:45 1012 29.88 841 24.83 -0 32 51 -9 15.8
05:50 1012 29.88 842 24.86 -0.1 31.9 53 -8.6 16.4
05:55 1013 29.91 842 24.86 -0.2 31.7 53 -8.5 16.7
06:00 1013 29.91 842 24.86 -0.2 31.6 54 -8.4 16.9
06:05 1013 29.91 842 24.86 -0.3 31.5 55 -8.3 17.1
06:10 1013 29.91 842 24.86 -0.4 31.2 56 -8.2 17.2
06:15 1013 29.91 842 24.86 -0.5 31.1 57 -8.1 17.5
06:20 1013 29.91 843 24.89 -0.6 30.9 58 -7.9 17.8
06:25 1013 29.91 843 24.89 -0.7 30.7 59 -7.8 17.9
06:30 1014 29.94 843 24.89 -0.8 30.5 59 -7.8 17.9
06:35 1014 29.94 843 24.89 -1 30.2 60 -7.9 17.8
06:40 1014 29.94 843 24.89 -1.1 30 61 -7.7 18.1
06:45 1014 29.94 843 24.89 -1.3 29.7 63 -7.5 18.5
06:50 1014 29.94 843 24.89 -1.5 29.4 64 -7.4 18.7
06:55 1014 29.94 843 24.89 -1.6 29.1 65 -7.4 18.7
07:00 1014 29.94 843 24.89 -1.6 29.2 65 -7.4 18.7
07:05 1014 29.94 843 24.89 -1.5 29.3 64 -7.4 18.6
07:10 1014 29.94 843 24.89 -1.5 29.3 64 -7.4 18.7
07:15 1014 29.94 843 24.89 -1.5 29.3 64 -7.5 18.6
07:20 1014 29.94 843 24.89 -1.6 29.2 64 -7.5 18.5
07:25 1014 29.94 843 24.89 -1.5 29.3 63 -7.8 18
07:30 1014 29.94 843 24.89 -1.5 29.3 62 -7.9 17.8
07:35 1014 29.94 843 24.89 -1.5 29.3 60 -8.4 17
07:40 1014 29.94 844 24.92 -1.4 29.5 59 -8.3 17
07:45 1014 29.94 844 24.92 -1.4 29.5 60 -8.3 17.1
07:50 1014 29.94 844 24.92 -1.5 29.3 60 -8.2 17.2
07:55 1014 29.94 844 24.92 -1.6 29.1 61 -8.3 17.1
08:00 1014 29.94 844 24.92 -1.8 28.8 61 -8.3 17.1
08:05 1014 29.94 844 24.92 -1.8 28.7 61 -8.3 17.1
08:10 1014 29.94 844 24.92 -1.9 28.6 62 -8.3 17.1
08:15 1014 29.94 844 24.92 -2 28.4 62 -8.4 16.8
08:20 1014 29.94 844 24.92 -2 28.4 62 -8.3 17
08:25 1014 29.94 844 24.92 -2.1 28.2 62 -8.3 17
08:30 1014 29.94 844 24.92 -2.4 27.7 65 -8.1 17.4
08:35 1015 29.97 844 24.92 -2.9 26.8 66 -8.4 16.9
08:40 1015 29.97 844 24.92 -2.8 26.9 67 -8.2 17.2
08:45 1015 29.97 844 24.92 -2.8 26.9 66 -8.4 17
08:50 1015 29.97 844 24.92 -2.7 27.1 66 -8.3 17
08:55 1015 29.97 844 24.92 -2.6 27.3 61 -9.2 15.5
09:00 1015 29.97 844 24.92 -2.4 27.7 60 -9.1 15.6
09:05 1015 29.97 844 24.92 -2.2 28 58 -9.4 15
09:10 1015 29.97 844 24.92 -2.2 28.1 56 -9.9 14.2
09:15 1015 29.97 844 24.92 -2.2 28 52 -10.8 12.6
09:20 1015 29.97 844 24.92 -2.1 28.3 48 -11.6 11.1
09:25 1015 29.97 844 24.92 -1.8 28.8 45 -12.1 10.2
09:30 1015 29.97 844 24.92 -1.2 29.9 45 -11.8 10.8
09:35 1015 29.97 845 24.95 -0.9 30.3 44 -11.6 11.1
09:40 1016 30 845 24.95 -0.6 30.9 44 -11.4 11.4
09:45 1016 30 845 24.95 -0.8 30.6 42 -12.1 10.3
09:50 1016 30 845 24.95 -0.2 31.6 41 -11.9 10.5
09:55 1016 30 845 24.95 0.4 32.7 40 -11.8 10.8
10:00 1016 30 845 24.95 1 33.7 39 -11.6 11.1
10:05 1016 30 845 24.95 1.4 34.6 38 -11.4 11.5
10:10 1016 30 845 24.95 1.1 33.9 39 -11.5 11.3
10:15 1016 30 845 24.95 0.6 33.1 39 -11.7 10.9
10:20 1016 30 845 24.95 0.8 33.4 39 -11.6 11.1
10:25 1016 30 845 24.95 1.3 34.4 42 -10.4 13.3
10:30 1016 30 845 24.95 0.9 33.6 42 -10.5 13.1
10:35 1016 30 845 24.95 1.4 34.5 40 -10.8 12.5
10:40 1016 30 845 24.95 2.3 36.2 38 -10.6 12.9
10:45 1016 30 845 24.95 2.3 36.1 38 -10.8 12.5
10:50 1016 30 845 24.95 1.9 35.3 39 -10.6 12.9
10:55 1016 30 845 24.95 2.3 36.2 38 -10.6 12.9
11:00 1016 30 845 24.95 2 35.7 38 -10.9 12.5
11:05 1016 30 845 24.95 2.6 36.6 39 -10.1 13.8
11:10 1016 30 845 24.95 2.2 35.9 38 -10.6 12.8
11:15 1016 30 845 24.95 2.6 36.7 36 -10.9 12.4
11:20 1016 30 845 24.95 2.6 36.6 36 -11.1 12
11:25 1016 30 845 24.95 2.4 36.4 37 -10.8 12.6
11:30 1016 30 845 24.95 2.1 35.8 38 -10.7 12.7
11:35 1016 30 845 24.95 2.7 36.9 36 -10.8 12.6
11:40 1016 30 845 24.95 3.7 38.6 32 -11.6 11.2
11:45 1016 30 845 24.95 4.2 39.5 32 -11.2 11.9
11:50 1016 30 845 24.95 3.9 39 33 -10.9 12.4
11:55 1016 30 845 24.95 3.7 38.7 33 -11 12.3
12:00 1016 30 845 24.95 3.2 37.7 36 -10.4 13.2
12:05 1016 30 845 24.95 3.5 38.3 33 -11.2 11.8
12:10 1016 30 845 24.95 3.6 38.5 33 -11.1 12
12:15 1016 30 845 24.95 3.2 37.8 34 -11.2 11.9
12:20 1016 30 845 24.95 3.3 38 34 -11.2 11.9
12:25 1016 30 845 24.95 3.2 37.8 34 -11.3 11.7
12:30 1016 30 845 24.95 3.1 37.5 36 -10.6 12.8
12:35 1016 30 845 24.95 3.1 37.6 37 -10.4 13.3
12:40 1016 30 845 24.95 3.4 38 33 -11.5 11.3
12:45 1016 30 845 24.95 3.5 38.3 32 -11.8 10.7
12:50 1016 30 845 24.95 3.6 38.5 33 -11.3 11.7
12:55 1016 30 845 24.95 3.5 38.4 34 -11 12.3
13:00 1016 30 845 24.95 3.7 38.6 34 -10.7 12.7
13:05 1016 30 845 24.95 3.9 38.9 36 -9.9 14.2
13:10 1016 30 845 24.95 4 39.2 33 -10.9 12.4
13:15 1016 30 845 24.95 3.8 38.9 34 -10.9 12.5
13:20 1016 30 845 24.95 3.9 39 33 -10.9 12.3
13:25 1016 30 845 24.95 3.8 38.8 33 -11.2 11.8
13:30 1015 29.97 845 24.95 3.7 38.7 34 -10.9 12.4
13:35 1015 29.97 845 24.95 3.6 38.5 34 -10.9 12.4
13:40 1015 29.97 845 24.95 3.9 39 33 -11.1 12
13:45 1015 29.97 844 24.92 4.2 39.5 30 -11.8 10.7
13:50 1015 29.97 844 24.92 4.6 40.4 31 -11 12.2
13:55 1015 29.97 844 24.92 4.5 40.2 33 -10.4 13.3
14:00 1015 29.97 844 24.92 4.2 39.6 33 -10.6 12.9
14:05 1015 29.97 844 24.92 4.3 39.8 33 -10.6 12.9
14:10 1015 29.97 844 24.92 4.2 39.5 34 -10.4 13.3
14:15 1015 29.97 844 24.92 4 39.2 34 -10.3 13.4
14:20 1015 29.97 844 24.92 3.8 38.9 35 -10.2 13.7
14:25 1015 29.97 844 24.92 3.8 38.8 36 -10 13.9
14:30 1015 29.97 844 24.92 3.8 38.9 35 -10.1 13.8
14:35 1015 29.97 844 24.92 3.9 38.9 34 -10.5 13.2
14:40 1015 29.97 844 24.92 4.1 39.3 35 -10 14
14:45 1015 29.97 844 24.92 4.1 39.4 36 -9.5 14.9
14:50 1015 29.97 844 24.92 4.1 39.3 34 -10.4 13.3
14:55 1015 29.97 844 24.92 4 39.1 37 -9.4 15.1
15:00 1015 29.97 844 24.92 4.1 39.4 34 -10.5 13.1
15:05 1015 29.97 844 24.92 4.2 39.5 33 -10.6 12.8
15:10 1015 29.97 844 24.92 4.1 39.4 33 -10.6 12.9
15:15 1015 29.97 844 24.92 4.3 39.7 33 -10.6 12.8
15:20 1015 29.97 844 24.92 4.3 39.8 34 -10.1 13.9
15:25 1015 29.97 844 24.92 4.3 39.7 36 -9.5 14.9
15:30 1015 29.97 844 24.92 4.3 39.7 36 -9.6 14.7
15:35 1014 29.94 844 24.92 4.3 39.7 33 -10.4 13.2
15:40 1014 29.94 844 24.92 4.4 39.9 32 -10.8 12.5
15:45 1014 29.94 844 24.92 4.2 39.6 33 -10.8 12.6
15:50 1014 29.94 844 24.92 4.3 39.7 34 -10.3 13.4
15:55 1014 29.94 843 24.89 4.4 39.9 33 -10.4 13.3
16:00 1014 29.94 843 24.89 4.7 40.4 33 -10.3 13.5
16:05 1014 29.94 843 24.89 4.5 40.2 33 -10.5 13
16:10 1014 29.94 843 24.89 4.5 40.2 31 -11.3 11.6
16:15 1014 29.94 843 24.89 4.5 40.2 32 -10.6 12.9
16:20 1014 29.94 843 24.89 4.6 40.3 32 -10.8 12.5
16:25 1014 29.94 843 24.89 4.5 40 31 -11.1 11.9
16:30 1014 29.94 843 24.89 4.4 40 32 -10.8 12.5
16:35 1014 29.94 843 24.89 4.4 39.9 31 -11.4 11.5
16:40 1014 29.94 843 24.89 4.4 40 33 -10.6 12.8
16:45 1014 29.94 843 24.89 4.4 39.9 35 -9.7 14.5
16:50 1014 29.94 843 24.89 4.4 39.9 33 -10.5 13.1
16:55 1014 29.94 843 24.89 4.4 39.9 34 -10.3 13.5
17:00 1013 29.91 843 24.89 4.5 40.1 33 -10.4 13.3
17:05 1013 29.91 843 24.89 4.4 40 32 -11 12.1
17:10 1013 29.91 842 24.86 4.4 39.9 33 -10.4 13.3
17:15 1013 29.91 842 24.86 4.4 39.9 33 -10.7 12.7
17:20 1013 29.91 842 24.86 4.4 39.8 32 -11 12.2
17:25 1013 29.91 842 24.86 4.5 40 33 -10.6 12.8
17:30 1013 29.91 842 24.86 4.8 40.7 30 -11.4 11.5
17:35 1013 29.91 842 24.86 4.8 40.6 32 -10.7 12.8
17:40 1013 29.91 842 24.86 5.1 41.2 32 -10.5 13.2
17:45 1013 29.91 842 24.86 5.5 41.8 32 -10 14
17:50 1013 29.91 842 24.86 5.6 42.1 30 -10.6 12.9
17:55 1013 29.91 842 24.86 5.4 41.7 31 -10.3 13.5
18:00 1013 29.91 842 24.86 5.2 41.4 29 -11.2 11.8
18:05 1013 29.91 842 24.86 5 41.1 32 -10.5 13.1
18:10 1013 29.91 842 24.86 4.8 40.7 31 -11 12.1
18:15 1013 29.91 842 24.86 4.7 40.5 31 -10.9 12.3
18:20 1013 29.91 842 24.86 4.6 40.2 32 -10.7 12.7
18:25 1013 29.91 842 24.86 4.4 39.9 31 -11.2 11.8
18:30 1012 29.88 842 24.86 4.3 39.8 31 -11.3 11.6
18:35 1012 29.88 842 24.86 4.2 39.6 31 -11.5 11.2
18:40 1012 29.88 842 24.86 4.2 39.5 34 -10.5 13.1
18:45 1012 29.88 841 24.83 3.7 38.7 33 -11 12.2
18:50 1012 29.88 841 24.83 3.7 38.6 33 -11 12.1
18:55 1012 29.88 841 24.83 3.6 38.5 35 -10.6 12.9
19:00 1012 29.88 841 24.83 3.3 38 34 -11.2 11.8
19:05 1012 29.88 841 24.83 3.4 38.1 34 -11.1 12.1
19:10 1012 29.88 841 24.83 3.4 38.1 33 -11.5 11.2
19:15 1012 29.88 841 24.83 3.6 38.5 32 -11.5 11.2
19:20 1012 29.88 841 24.83 3.6 38.5 33 -11.4 11.5
19:25 1012 29.88 841 24.83 3.7 38.7 31 -11.8 10.7
19:30 1011 29.85 841 24.83 3.8 38.9 31 -11.7 10.9
19:35 1011 29.85 841 24.83 3.5 38.3 33 -11.5 11.2
19:40 1011 29.85 841 24.83 3.5 38.3 31 -12 10.3
19:45 1011 29.85 841 24.83 3.6 38.4 33 -11.4 11.5
19:50 1011 29.85 840 24.81 3.3 38 34 -11 12.2
19:55 1011 29.85 840 24.81 3.1 37.7 35 -10.9 12.4
20:00 1011 29.85 840 24.81 3.1 37.5 33 -11.6 11.1
20:05 1011 29.85 840 24.81 3.1 37.5 33 -11.6 11.1
20:10 1011 29.85 840 24.81 3.2 37.8 34 -11.3 11.6
20:15 1011 29.85 840 24.81 3.1 37.6 34 -11.2 11.8
20:20 1011 29.85 840 24.81 3 37.4 35 -11 12.2
20:25 1011 29.85 840 24.81 3 37.4 34 -11.4 11.5
20:30 1010 29.83 840 24.81 2.9 37.2 35 -11.2 11.8
20:35 1010 29.83 840 24.81 2.9 37.2 35 -11.3 11.7
20:40 1010 29.83 839 24.78 2.9 37.2 34 -11.3 11.6
20:45 1010 29.83 839 24.78 2.9 37.2 35 -11.1 12
20:50 1010 29.83 839 24.78 3 37.4 34 -11.6 11.2
20:55 1010 29.83 839 24.78 3.5 38.2 34 -11.2 11.9
21:00 1010 29.83 839 24.78 3.4 38.1 34 -11.1 12.1
21:05 1010 29.83 839 24.78 3.3 37.9 34 -11.2 11.9
21:10 1010 29.83 839 24.78 3.4 38.1 34 -11 12.1
21:15 1009 29.8 839 24.78 3.2 37.8 35 -10.7 12.8
21:20 1009 29.8 839 24.78 2.8 37 37 -10.6 12.9
21:25 1009 29.8 838 24.75 2.3 36.1 39 -10.4 13.3
21:30 1009 29.8 838 24.75 2.2 35.9 39 -10.5 13.1
21:35 1009 29.8 838 24.75 2.5 36.4 38 -10.4 13.3
21:40 1009 29.8 838 24.75 2.7 36.9 38 -10.1 13.8
21:45 1009 29.8 838 24.75 2.7 36.9 39 -10 14
21:50 1009 29.8 838 24.75 2.7 36.9 39 -9.9 14.1
21:55 1009 29.8 838 24.75 2.5 36.6 41 -9.4 15
22:00 1009 29.8 838 24.75 2.2 35.9 43 -9.3 15.3
22:05 1009 29.8 838 24.75 2 35.7 43 -9.2 15.5
22:10 1008 29.77 838 24.75 2.2 35.9 42 -9.6 14.8
22:15 1008 29.77 838 24.75 2.8 37.1 38 -10.1 13.8
22:20 1008 29.77 838 24.75 3.4 38.1 40 -8.9 16
22:25 1008 29.77 837 24.72 3 37.4 41 -9 15.8
22:30 1008 29.77 837 24.72 2.8 37 42 -9 15.8
22:35 1008 29.77 837 24.72 2.8 37.1 39 -9.8 14.4
22:40 1008 29.77 837 24.72 3.4 38.1 38 -9.5 14.8
22:45 1008 29.77 837 24.72 3.7 38.6 38 -9.4 15
22:50 1008 29.77 837 24.72 3.6 38.5 39 -9.1 15.7
22:55 1008 29.77 837 24.72 3.6 38.5 39 -9.1 15.5
23:00 1008 29.77 837 24.72 3.7 38.7 39 -9.1 15.6
23:05 1008 29.77 837 24.72 3.5 38.3 41 -8.7 16.4
23:10 1008 29.77 837 24.72 3.5 38.3 39 -9.3 15.3
23:15 1007 29.74 837 24.72 3.8 38.8 38 -9.2 15.5
23:20 1007 29.74 836 24.69 4 39.1 40 -8.4 16.9
23:25 1007 29.74 836 24.69 4.1 39.4 39 -8.5 16.6
23:30 1007 29.74 836 24.69 4.1 39.4 42 -7.8 17.9
23:35 1007 29.74 836 24.69 3.9 39.1 41 -8.2 17.2
23:40 1007 29.74 836 24.69 3.9 38.9 41 -8.2 17.2
23:45 1007 29.74 836 24.69 3.8 38.8 40 -8.6 16.6
23:50 1007 29.74 836 24.69 3.8 38.8 39 -9 15.8
23:55 1006 29.71 836 24.69 3.8 38.8 42 -8 17.7
24:00 1006 29.71 835 24.66 3.2 37.8 43 -8.4 17